Time;durP1;ratioP1;P1;durP2;ratioP2;P2;SDS_P1;SDS_P2;PMS_P1;PMS_P2;Temp;Humidity;BMP_temperature;BMP_pressure;BME280_temperature;BME280_humidity;BME280_pressure;Samples;Min_cycle;Max_cycle;Signal;HPM_P1;HPM_P2
2021/06/22 00:02:24;;;;;;;8.27;3.85;;;;;;;16.93;70.57;100556.03;5014628;28;20136;-60
2021/06/22 00:04:51;;;;;;;13.38;3.95;;;;;;;16.72;70.23;100515.38;5020206;28;20137;-61
2021/06/22 00:07:20;;;;;;;12.88;3.70;;;;;;;16.83;70.47;100535.72;5021984;28;20077;-61
2021/06/22 00:09:47;;;;;;;7.90;3.70;;;;;;;16.92;70.22;100550.69;5024871;28;20042;-63
2021/06/22 00:12:14;;;;;;;12.32;4.03;;;;;;;16.78;70.58;100529.03;5017655;28;20138;-62
2021/06/22 00:14:42;;;;;;;12.13;4.45;;;;;;;16.76;70.15;100524.91;5033390;28;20080;-66
2021/06/22 00:17:09;;;;;;;11.95;3.55;;;;;;;16.77;70.19;100529.38;5022676;28;20042;-65
2021/06/22 00:19:37;;;;;;;11.40;4.25;;;;;;;16.88;70.40;100544.03;5031807;28;20053;-67
2021/06/22 00:22:04;;;;;;;14.55;4.82;;;;;;;16.87;70.28;100542.38;5023083;28;20081;-68
2021/06/22 00:24:31;;;;;;;17.55;4.78;;;;;;;16.84;70.39;100545.84;5030687;28;20081;-68
2021/06/22 00:26:58;;;;;;;10.20;3.92;;;;;;;16.76;70.48;100536.19;5030442;28;20085;-68
2021/06/22 00:29:26;;;;;;;11.27;4.35;;;;;;;16.70;70.18;100529.78;5021695;28;20073;-68
2021/06/22 00:31:53;;;;;;;13.40;6.53;;;;;;;16.75;70.22;100534.50;5030314;28;20042;-67
2021/06/22 00:34:20;;;;;;;13.05;3.67;;;;;;;16.62;69.96;100519.31;5028324;28;20053;-66
2021/06/22 00:36:47;;;;;;;13.10;4.25;;;;;;;16.58;70.08;100521.94;5030630;28;20137;-68
2021/06/22 00:39:14;;;;;;;10.23;3.80;;;;;;;16.62;70.06;100519.31;5030184;28;20129;-61
2021/06/22 00:41:41;;;;;;;11.10;3.80;;;;;;;16.69;69.91;100538.59;5026607;28;20559;-62
2021/06/22 00:44:10;;;;;;;12.68;3.80;;;;;;;16.69;70.18;100527.31;5021272;28;20133;-61
2021/06/22 00:46:37;;;;;;;15.18;4.20;;;;;;;16.66;70.32;100537.25;5026425;28;20096;-61
2021/06/22 00:49:05;;;;;;;10.73;4.68;;;;;;;16.67;70.02;100532.44;5014579;28;20084;-61
2021/06/22 00:51:32;;;;;;;15.88;4.65;;;;;;;16.65;70.12;100540.38;5030405;28;20080;-63
2021/06/22 00:54:00;;;;;;;23.45;5.80;;;;;;;16.63;70.19;100534.22;5030310;28;20473;-63
2021/06/22 00:56:30;;;;;;;16.48;5.35;;;;;;;16.54;70.37;100520.91;5042541;28;20085;-60
2021/06/22 00:58:57;;;;;;;12.18;3.80;;;;;;;16.55;70.64;100527.41;5017531;28;20161;-61
2021/06/22 01:01:24;;;;;;;14.80;4.25;;;;;;;16.52;70.45;100530.84;5040967;28;20088;-61
2021/06/22 01:03:51;;;;;;;10.75;3.55;;;;;;;16.56;70.14;100548.78;5030524;28;20049;-61
2021/06/22 01:06:20;;;;;;;12.95;5.15;;;;;;;16.52;70.19;100542.97;5019391;28;20132;-61
2021/06/22 01:08:49;;;;;;;15.07;3.95;;;;;;;16.31;70.36;100503.19;5028895;28;20050;-61
2021/06/22 01:11:16;;;;;;;12.20;4.43;;;;;;;16.50;70.11;100545.25;5025940;28;20137;-61
2021/06/22 01:13:44;;;;;;;7.15;3.95;;;;;;;16.40;70.13;100525.78;5027419;28;20521;-61
2021/06/22 01:16:26;;;;;;;18.92;4.53;;;;;;;16.24;70.22;100497.16;5025274;28;20042;-61
2021/06/22 01:19:06;;;;;;;13.23;4.70;;;;;;;16.41;70.36;100533.09;5013056;28;20441;-61
2021/06/22 01:21:33;;;;;;;14.05;5.13;;;;;;;16.42;70.25;100531.09;5011503;28;20145;-61
2021/06/22 01:24:26;;;;;;;11.73;4.97;;;;;;;16.43;70.41;100527.13;5027765;28;20565;-63
2021/06/22 01:26:55;;;;;;;10.68;4.28;;;;;;;16.41;70.34;100512.50;5021825;28;20140;-61
2021/06/22 01:29:23;;;;;;;13.98;4.25;;;;;;;16.35;70.25;100511.81;5016693;28;20076;-62
2021/06/22 01:31:53;;;;;;;16.10;4.35;;;;;;;16.38;70.35;100516.00;5024042;28;20441;-62
2021/06/22 01:34:24;;;;;;;13.90;3.30;;;;;;;16.40;70.77;100525.78;5029697;28;20057;-63
2021/06/22 01:36:54;;;;;;;18.30;4.53;;;;;;;16.33;70.77;100517.75;5026032;28;20140;-63
2021/06/22 01:39:21;;;;;;;9.63;4.38;;;;;;;16.31;70.78;100519.25;5027817;28;20081;-63
2021/06/22 01:41:48;;;;;;;16.83;4.60;;;;;;;16.34;70.54;100529.88;5013715;28;20104;-61
2021/06/22 01:44:15;;;;;;;12.65;3.80;;;;;;;16.30;71.18;100521.22;5029229;28;20081;-63
2021/06/22 01:46:42;;;;;;;11.40;3.90;;;;;;;16.27;70.72;100518.22;5028622;28;20382;-61
2021/06/22 01:49:10;;;;;;;8.93;3.67;;;;;;;16.34;71.27;100530.72;5029729;28;20092;-61
2021/06/22 01:51:36;;;;;;;15.50;4.03;;;;;;;16.29;71.09;100528.03;5029463;28;20046;-60
2021/06/22 01:54:04;;;;;;;15.55;4.38;;;;;;;16.30;70.72;100529.69;5028758;28;20128;-60
2021/06/22 01:56:33;;;;;;;11.15;5.22;;;;;;;16.34;70.80;100525.09;5030147;28;20513;-60
2021/06/22 01:59:01;;;;;;;12.40;4.57;;;;;;;16.28;70.63;100500.19;5025876;28;20136;-61
2021/06/22 02:01:28;;;;;;;14.77;3.88;;;;;;;16.39;70.56;100520.47;5025641;28;20140;-60
2021/06/22 02:03:56;;;;;;;8.75;3.85;;;;;;;16.38;70.77;100518.81;5031939;28;20072;-61
2021/06/22 02:06:23;;;;;;;12.88;4.50;;;;;;;16.40;70.74;100522.13;5026312;28;20045;-61
2021/06/22 02:08:50;;;;;;;12.63;4.40;;;;;;;16.40;70.47;100527.75;5026047;28;20092;-60
2021/06/22 02:11:17;;;;;;;18.10;5.65;;;;;;;16.38;70.46;100519.66;5017812;28;20129;-61
2021/06/22 02:13:43;;;;;;;15.40;5.00;;;;;;;16.34;70.65;100513.81;5012385;28;20545;-61
2021/06/22 02:16:10;;;;;;;15.88;4.68;;;;;;;16.35;70.63;100514.66;5025841;28;20048;-61
2021/06/22 02:18:37;;;;;;;11.57;3.67;;;;;;;16.27;70.71;100510.63;5014512;28;20046;-62
2021/06/22 02:21:06;;;;;;;9.82;3.92;;;;;;;16.31;70.69;100522.09;5029007;28;20409;-62
2021/06/22 02:23:34;;;;;;;15.23;4.75;;;;;;;16.28;70.46;100512.28;5029319;28;20049;-62
2021/06/22 02:26:01;;;;;;;15.30;4.60;;;;;;;16.24;70.69;100514.06;5032758;28;20087;-62
2021/06/22 02:28:28;;;;;;;16.83;5.25;;;;;;;16.18;70.64;100504.06;5032683;28;20053;-61
2021/06/22 02:30:56;;;;;;;11.38;4.47;;;;;;;16.10;70.32;100485.09;5029482;28;20125;-61
2021/06/22 02:33:24;;;;;;;14.13;4.90;;;;;;;16.25;70.48;100510.09;5032046;28;20085;-59
2021/06/22 02:35:51;;;;;;;9.68;4.53;;;;;;;16.23;70.41;100511.56;5031100;28;20095;-57
2021/06/22 02:38:19;;;;;;;17.50;5.15;;;;;;;16.25;70.41;100520.53;5033525;28;20499;-58
2021/06/22 02:40:46;;;;;;;10.90;4.63;;;;;;;16.21;70.35;100517.53;5031096;28;20037;-58
2021/06/22 02:43:14;;;;;;;13.10;4.70;;;;;;;16.22;70.34;100519.19;5029833;28;20565;-59
2021/06/22 02:45:41;;;;;;;14.05;4.82;;;;;;;16.19;70.27;100516.16;5026689;28;20164;-59
2021/06/22 02:48:10;;;;;;;19.00;5.82;;;;;;;16.17;70.38;100518.47;5034229;28;20088;-59
2021/06/22 02:50:41;;;;;;;8.18;4.93;;;;;;;16.09;70.64;100518.06;5032089;28;20104;-60
2021/06/22 02:53:09;;;;;;;13.10;5.13;;;;;;;16.06;70.63;100507.44;5032467;28;20045;-61
2021/06/22 02:55:38;;;;;;;14.40;4.80;;;;;;;16.15;70.60;100517.97;5034233;28;20053;-57
2021/06/22 02:58:05;;;;;;;14.07;5.25;;;;;;;16.12;70.48;100519.44;5028663;28;20130;-58
2021/06/22 03:00:32;;;;;;;15.90;4.72;;;;;;;16.10;70.43;100518.91;5023766;28;20141;-57
2021/06/22 03:02:59;;;;;;;10.23;4.47;;;;;;;16.06;70.61;100515.06;5015790;28;20131;-58
2021/06/22 03:05:26;;;;;;;13.80;5.38;;;;;;;16.12;70.80;100530.69;5021790;28;20152;-58
2021/06/22 03:07:54;;;;;;;11.27;5.00;;;;;;;16.09;70.74;100536.97;5029886;28;20445;-58
2021/06/22 03:10:23;;;;;;;12.88;5.15;;;;;;;16.08;70.53;100538.13;5031764;28;20124;-58
2021/06/22 03:12:51;;;;;;;15.07;4.65;;;;;;;15.97;70.81;100525.44;5017368;28;20129;-57
2021/06/22 03:15:19;;;;;;;16.88;4.32;;;;;;;16.07;70.98;100530.84;5022621;28;20136;-58
2021/06/22 03:17:48;;;;;;;13.02;5.35;;;;;;;15.82;70.71;100498.44;5020407;28;20096;-57
2021/06/22 03:20:16;;;;;;;18.95;6.45;;;;;;;15.90;70.74;100508.97;5029283;28;20042;-58
2021/06/22 03:22:43;;;;;;;13.13;4.85;;;;;;;16.08;70.88;100538.97;5023132;28;20104;-58
2021/06/22 03:25:11;;;;;;;14.57;5.18;;;;;;;16.06;70.72;100529.16;5032357;28;20128;-58
2021/06/22 03:27:39;;;;;;;17.58;5.72;;;;;;;16.05;71.17;100522.69;5034468;28;20128;-58
2021/06/22 03:30:08;;;;;;;13.55;5.72;;;;;;;16.07;70.80;100525.19;5027794;28;20085;-58
2021/06/22 03:32:35;;;;;;;13.20;5.78;;;;;;;16.15;70.78;100544.16;5016695;28;20611;-63
2021/06/22 03:35:06;;;;;;;13.57;5.30;;;;;;;16.15;71.12;100535.69;5031144;28;20128;-61
2021/06/22 03:37:34;;;;;;;13.82;5.38;;;;;;;16.20;70.82;100535.56;5033724;28;20137;-61
2021/06/22 03:40:05;;;;;;;15.73;5.20;;;;;;;16.17;71.14;100519.31;5031923;28;20125;-64
2021/06/22 03:42:36;;;;;;;15.07;6.18;;;;;;;16.19;71.23;100519.00;5025989;28;20080;-67
2021/06/22 03:45:07;;;;;;;18.77;5.53;;;;;;;16.31;71.56;100537.00;5031594;28;20077;-68
2021/06/22 03:47:34;;;;;;;9.57;5.10;;;;;;;16.27;71.64;100526.66;5017963;28;20486;-65
2021/06/22 03:50:03;;;;;;;8.70;4.68;;;;;;;16.33;71.46;100539.47;5027076;28;20046;-66
2021/06/22 03:52:30;;;;;;;15.67;5.00;;;;;;;16.30;71.41;100549.41;5014470;28;20054;-64
2021/06/22 03:54:57;;;;;;;9.82;4.47;;;;;;;16.36;71.72;100550.13;5038504;28;20080;-66
2021/06/22 03:57:24;;;;;;;9.77;4.88;;;;;;;16.39;71.40;100555.13;5014156;28;20129;-67
2021/06/22 03:59:51;;;;;;;11.20;4.32;;;;;;;16.31;71.71;100534.19;5026382;28;20056;-66
2021/06/22 04:02:19;;;;;;;12.90;4.72;;;;;;;16.35;71.78;100542.81;5028877;28;20136;-73
2021/06/22 04:04:46;;;;;;;20.08;5.63;;;;;;;16.33;71.39;100547.94;5021143;28;20549;-62
2021/06/22 04:07:13;;;;;;;15.38;5.20;;;;;;;16.35;71.60;100552.13;5019746;28;20534;-63
2021/06/22 04:09:40;;;;;;;16.20;4.70;;;;;;;16.31;71.74;100553.91;5018077;28;20121;-65
2021/06/22 04:12:07;;;;;;;10.68;4.57;;;;;;;16.29;71.71;100544.94;5025259;28;20087;-61
2021/06/22 04:14:34;;;;;;;14.80;5.38;;;;;;;16.25;71.25;100543.91;5028683;28;20124;-64
2021/06/22 04:17:01;;;;;;;13.55;5.15;;;;;;;16.26;71.26;100551.19;5030686;28;20076;-64
2021/06/22 04:19:28;;;;;;;16.42;4.93;;;;;;;16.22;71.36;100553.00;5027454;28;20525;-64
2021/06/22 04:21:55;;;;;;;17.25;5.00;;;;;;;16.10;71.03;100542.31;5029734;28;20140;-64
2021/06/22 04:24:22;;;;;;;12.50;4.03;;;;;;;15.98;71.09;100532.72;5018038;28;20438;-66
2021/06/22 04:26:48;;;;;;;13.18;5.60;;;;;;;16.05;70.91;100550.84;5014532;28;20367;-66
2021/06/22 04:29:15;;;;;;;13.15;5.50;;;;;;;16.03;71.31;100569.22;5030631;28;20045;-66
2021/06/22 04:31:42;;;;;;;14.80;5.18;;;;;;;16.02;71.15;100567.56;5022804;28;20073;-63
2021/06/22 04:34:09;;;;;;;14.00;4.75;;;;;;;15.95;71.31;100550.25;5031881;28;20045;-64
2021/06/22 04:36:36;;;;;;;11.73;4.22;;;;;;;16.01;71.25;100566.72;5022301;28;20050;-65
2021/06/22 04:39:03;;;;;;;13.63;5.93;;;;;;;16.00;71.24;100558.56;5022176;28;20136;-65
2021/06/22 04:41:31;;;;;;;11.20;5.45;;;;;;;15.99;71.37;100573.81;5024079;28;20045;-62
2021/06/22 04:43:58;;;;;;;11.77;5.03;;;;;;;15.95;71.13;100568.00;5023655;28;20133;-62
2021/06/22 04:46:25;;;;;;;10.02;4.78;;;;;;;15.84;71.52;100558.94;5020808;28;20092;-67
2021/06/22 04:48:52;;;;;;;14.27;4.80;;;;;;;15.87;71.24;100563.13;5028664;28;20092;-67
2021/06/22 04:51:19;;;;;;;13.18;5.57;;;;;;;15.88;71.22;100562.78;5016728;28;20400;-66
2021/06/22 04:53:46;;;;;;;12.80;4.40;;;;;;;15.92;71.10;100565.81;5019588;28;20122;-61
2021/06/22 04:56:14;;;;;;;17.13;5.28;;;;;;;15.92;71.00;100567.78;5027103;28;20556;-63
2021/06/22 04:58:41;;;;;;;9.93;5.00;;;;;;;15.92;71.12;100576.25;5026090;28;20125;-62
2021/06/22 05:01:08;;;;;;;17.40;5.77;;;;;;;15.73;71.06;100546.25;5023622;28;20076;-64
2021/06/22 05:03:35;;;;;;;15.38;5.50;;;;;;;15.93;71.32;100559.03;5031066;28;20091;-62
2021/06/22 05:06:02;;;;;;;14.00;6.03;;;;;;;15.92;71.17;100568.63;5028678;28;20136;-67
2021/06/22 05:08:29;;;;;;;15.48;5.70;;;;;;;15.65;71.19;100524.41;5024610;28;20080;-71
2021/06/22 05:10:56;;;;;;;18.05;6.10;;;;;;;15.89;70.86;100572.06;5030913;28;20096;-67
2021/06/22 05:13:24;;;;;;;12.18;5.63;;;;;;;15.87;71.06;100577.19;5029592;28;20069;-65
2021/06/22 05:15:51;;;;;;;13.80;5.53;;;;;;;15.87;71.21;100592.09;5026685;28;20128;-66
2021/06/22 05:18:18;;;;;;;16.60;5.87;;;;;;;15.86;71.11;100598.03;5027884;28;20099;-60
2021/06/22 05:20:45;;;;;;;16.90;6.97;;;;;;;15.85;71.24;100597.22;5030347;28;20088;-60
2021/06/22 05:23:11;;;;;;;14.95;5.78;;;;;;;15.82;71.50;100588.56;5027927;28;20133;-60
2021/06/22 05:25:41;;;;;;;18.88;7.55;;;;;;;15.71;71.27;100568.25;5030073;28;20052;-64
2021/06/22 05:28:08;;;;;;;13.00;6.18;;;;;;;15.74;71.26;100578.88;5027539;28;20506;-62
2021/06/22 05:30:36;;;;;;;15.98;6.30;;;;;;;15.83;71.62;100598.69;5020059;28;20477;-62
2021/06/22 05:33:03;;;;;;;16.63;6.68;;;;;;;15.79;71.46;100598.47;5028360;28;20129;-61
2021/06/22 05:35:30;;;;;;;16.63;5.95;;;;;;;15.86;71.63;100612.13;5021469;28;20133;-58
2021/06/22 05:37:57;;;;;;;12.45;6.50;;;;;;;15.87;71.82;100611.81;5026533;28;20124;-61
2021/06/22 05:40:25;;;;;;;15.82;6.63;;;;;;;15.94;71.60;100610.56;5026610;28;20050;-62
2021/06/22 05:42:52;;;;;;;15.30;6.18;;;;;;;15.93;71.53;100604.09;5029638;28;20133;-61
2021/06/22 05:45:19;;;;;;;21.95;6.95;;;;;;;15.97;71.46;100604.31;5028633;28;20073;-59
2021/06/22 05:47:47;;;;;;;19.03;7.23;;;;;;;15.99;71.46;100610.44;5026484;28;20096;-56
2021/06/22 05:50:14;;;;;;;15.73;7.43;;;;;;;16.01;71.87;100608.97;5024148;28;20123;-61
2021/06/22 05:52:41;;;;;;;18.08;8.55;;;;;;;15.89;71.77;100588.97;5026392;28;20073;-61
2021/06/22 05:55:16;;;;;;;18.10;9.27;;;;;;;16.09;71.78;100607.38;5023117;28;20081;-62
2021/06/22 05:57:47;;;;;;;20.58;8.35;;;;;;;16.15;71.83;100597.69;5023874;28;20049;-61
2021/06/22 06:00:20;;;;;;;19.67;8.00;;;;;;;16.21;72.11;100599.22;5030391;28;20088;-64
2021/06/22 06:02:49;;;;;;;15.98;9.00;;;;;;;16.21;71.98;100582.34;5033691;28;20088;-62
2021/06/22 06:05:18;;;;;;;18.25;8.77;;;;;;;16.11;71.85;100554.41;5030473;28;20049;-61
2021/06/22 06:07:46;;;;;;;20.88;8.82;;;;;;;16.45;71.90;100579.22;5031665;28;20049;-62
2021/06/22 06:10:13;;;;;;;15.45;7.10;;;;;;;16.85;72.06;100586.97;5028480;28;20470;-62
2021/06/22 06:12:40;;;;;;;21.05;7.88;;;;;;;17.26;72.28;100593.22;5030752;28;20091;-62
2021/06/22 06:15:09;;;;;;;22.95;6.88;;;;;;;17.55;71.95;100585.34;5021964;28;20081;-61
2021/06/22 06:17:37;;;;;;;20.55;7.70;;;;;;;17.62;71.59;100586.53;5027865;28;20120;-62
2021/06/22 06:20:06;;;;;;;19.67;6.60;;;;;;;17.37;71.47;100570.34;5029934;28;20624;-61
2021/06/22 06:22:37;;;;;;;19.75;7.28;;;;;;;17.39;71.31;100584.94;5032842;28;20055;-63
2021/06/22 06:25:05;;;;;;;20.55;6.80;;;;;;;17.43;70.81;100600.06;5029658;28;20128;-62
2021/06/22 06:30:09;;;;;;;21.17;6.40;;;;;;;17.38;70.85;100594.59;5029016;28;20074;-63
2021/06/22 06:32:36;;;;;;;17.10;7.00;;;;;;;17.35;70.87;100598.06;5025574;28;20191;-62
2021/06/22 06:35:03;;;;;;;17.45;6.60;;;;;;;17.32;70.54;100599.53;5037674;28;20120;-62
2021/06/22 06:37:30;;;;;;;20.90;6.63;;;;;;;17.34;70.77;100590.75;5032298;28;20442;-62
2021/06/22 06:39:57;;;;;;;16.90;6.28;;;;;;;17.26;70.60;100572.59;5032806;28;20092;-63
2021/06/22 06:42:24;;;;;;;20.88;6.65;;;;;;;17.49;70.52;100598.78;5024071;28;20129;-63
2021/06/22 06:44:51;;;;;;;25.73;7.35;;;;;;;17.65;70.42;100600.00;5029116;28;20088;-62
2021/06/22 06:47:18;;;;;;;22.85;7.00;;;;;;;17.99;69.86;100595.63;5023101;28;20140;-62
2021/06/22 06:49:45;;;;;;;17.52;6.40;;;;;;;18.39;69.63;100610.50;5020628;28;20553;-63
2021/06/22 06:52:12;;;;;;;18.38;6.97;;;;;;;18.79;68.67;100601.84;5026668;28;20430;-62
2021/06/22 06:54:39;;;;;;;15.70;6.28;;;;;;;19.20;67.86;100605.25;5013929;28;20077;-62
2021/06/22 06:57:06;;;;;;;13.82;5.30;;;;;;;19.54;67.26;100607.94;5013256;28;20077;-62
2021/06/22 06:59:34;;;;;;;18.77;6.75;;;;;;;19.60;66.66;100594.44;5014757;28;20221;-61
2021/06/22 07:02:01;;;;;;;12.13;4.80;;;;;;;19.84;66.23;100619.34;5027700;28;20049;-62
2021/06/22 07:04:28;;;;;;;17.60;5.80;;;;;;;20.04;65.70;100626.25;5034058;28;20073;-62
2021/06/22 07:06:55;;;;;;;15.05;5.75;;;;;;;20.29;65.37;100627.25;5030829;28;20064;-62
2021/06/22 07:09:22;;;;;;;16.83;6.00;;;;;;;20.59;64.36;100623.19;5031639;28;20461;-62
2021/06/22 07:11:49;;;;;;;16.13;5.85;;;;;;;21.04;63.60;100619.59;5028468;28;20129;-62
2021/06/22 07:14:16;;;;;;;19.05;5.40;;;;;;;21.42;62.42;100629.91;5030125;28;20124;-62
2021/06/22 07:16:43;;;;;;;19.88;5.65;;;;;;;21.53;62.07;100628.25;5032468;28;20089;-62
2021/06/22 07:19:10;;;;;;;15.23;5.40;;;;;;;21.37;61.85;100635.81;5023870;28;20069;-62
2021/06/22 07:21:36;;;;;;;17.30;5.53;;;;;;;21.35;61.35;100632.50;5024844;28;20445;-61
2021/06/22 07:24:04;;;;;;;29.33;5.75;;;;;;;21.36;61.06;100631.31;5027037;28;20124;-61
2021/06/22 07:26:34;;;;;;;13.68;4.93;;;;;;;21.12;61.20;100588.63;5025611;28;20045;-62
2021/06/22 07:29:02;;;;;;;9.40;5.15;;;;;;;21.64;61.02;100633.47;5026593;28;20049;-63
2021/06/22 07:31:29;;;;;;;11.98;4.97;;;;;;;21.97;60.63;100637.06;5026501;28;20560;-64
2021/06/22 07:33:56;;;;;;;15.77;5.05;;;;;;;21.94;60.07;100626.38;5030116;28;20045;-66
2021/06/22 07:36:22;;;;;;;13.57;5.00;;;;;;;22.24;59.61;100637.53;5016838;28;20133;-63
2021/06/22 07:38:49;;;;;;;10.65;4.63;;;;;;;22.56;59.51;100640.56;5031648;28;20099;-62
2021/06/22 07:41:17;;;;;;;9.25;4.18;;;;;;;22.89;58.84;100638.31;5022159;28;20077;-68
2021/06/22 07:43:45;;;;;;;13.32;5.32;;;;;;;23.02;58.26;100635.47;5029579;28;20085;-68
2021/06/22 07:46:12;;;;;;;10.15;4.05;;;;;;;23.57;57.19;100639.41;5033077;28;20091;-68
2021/06/22 07:48:41;;;;;;;12.32;4.63;;;;;;;24.04;56.73;100630.88;5022933;28;20137;-68
2021/06/22 07:51:08;;;;;;;17.25;3.53;;;;;;;24.13;55.86;100627.81;5019678;28;20125;-68
2021/06/22 07:53:35;;;;;;;11.98;3.75;;;;;;;24.29;55.26;100628.59;5025818;28;20125;-68
2021/06/22 07:56:02;;;;;;;8.32;3.40;;;;;;;24.36;54.87;100637.31;5032030;28;20120;-68
2021/06/22 07:58:29;;;;;;;11.00;3.33;;;;;;;24.50;54.82;100630.31;5030405;28;20128;-69
2021/06/22 08:00:56;;;;;;;14.77;4.55;;;;;;;24.94;53.93;100636.59;5021705;28;20085;-68
2021/06/22 08:03:24;;;;;;;11.05;3.70;;;;;;;25.46;52.60;100628.63;5030671;28;20037;-68
2021/06/22 08:05:52;;;;;;;10.98;3.22;;;;;;;25.98;51.97;100629.97;5031635;28;20133;-68
2021/06/22 08:08:21;;;;;;;6.00;2.70;;;;;;;26.12;50.70;100618.78;5024525;28;20053;-68
2021/06/22 08:10:52;;;;;;;10.48;3.78;;;;;;;26.53;50.05;100635.34;5028205;28;20124;-68
2021/06/22 08:13:20;;;;;;;11.27;3.38;;;;;;;26.80;49.44;100633.25;5021021;28;20366;-68
2021/06/22 08:15:47;;;;;;;7.93;3.58;;;;;;;26.55;49.27;100630.06;5027440;28;20069;-68
2021/06/22 08:18:15;;;;;;;6.85;3.38;;;;;;;26.32;49.71;100644.41;5017202;28;20046;-68
2021/06/22 08:20:43;;;;;;;7.38;3.20;;;;;;;26.15;49.48;100632.34;5027661;28;20049;-65
2021/06/22 08:23:10;;;;;;;14.57;3.88;;;;;;;26.07;49.23;100629.72;5031959;28;20132;-70
2021/06/22 08:25:38;;;;;;;8.18;2.67;;;;;;;25.73;49.15;100635.25;5033272;28;20284;-64
2021/06/22 08:28:05;;;;;;;10.32;3.78;;;;;;;25.69;49.40;100646.63;5031687;28;20141;-67
2021/06/22 08:30:33;;;;;;;5.50;2.85;;;;;;;25.66;49.25;100635.97;5027947;28;20049;-67
2021/06/22 08:33:02;;;;;;;8.23;3.20;;;;;;;26.03;49.01;100658.28;5023714;28;20053;-60
2021/06/22 08:35:31;;;;;;;8.05;2.90;;;;;;;26.18;48.42;100651.56;5028783;28;20140;-71
2021/06/22 08:37:59;;;;;;;8.63;3.33;;;;;;;26.33;48.54;100658.38;5022640;28;20050;-67
2021/06/22 08:40:26;;;;;;;9.35;3.83;;;;;;;26.70;48.03;100658.53;5033306;28;20088;-67
2021/06/22 08:42:54;;;;;;;10.25;3.00;;;;;;;26.88;47.04;100638.69;5022701;28;20485;-67
2021/06/22 08:45:21;;;;;;;9.77;3.45;;;;;;;26.97;46.73;100674.81;5018204;28;20441;-68
2021/06/22 08:47:48;;;;;;;11.82;3.20;;;;;;;26.64;47.10;100671.53;5024426;28;20048;-66
2021/06/22 08:50:17;;;;;;;10.43;3.42;;;;;;;26.31;47.29;100668.53;5031571;28;20084;-69
2021/06/22 08:52:45;;;;;;;5.47;2.58;;;;;;;25.75;47.69;100618.56;5032638;28;20065;-69
2021/06/22 08:55:32;;;;;;;6.97;2.65;;;;;;;25.90;47.36;100665.41;5024144;28;20141;-69
2021/06/22 08:58:11;;;;;;;6.38;2.67;;;;;;;25.60;47.74;100666.06;5019890;28;20037;-69
2021/06/22 09:00:41;;;;;;;4.88;3.13;;;;;;;25.28;47.53;100665.47;5021157;28;20137;-69
2021/06/22 09:03:12;;;;;;;6.78;2.80;;;;;;;25.20;47.88;100675.94;5031100;28;20051;-70
2021/06/22 09:05:41;;;;;;;4.93;2.88;;;;;;;25.08;48.18;100678.91;5032308;28;20128;-69
2021/06/22 09:08:19;;;;;;;5.65;2.78;;;;;;;25.13;48.28;100690.09;5031404;28;20132;-70
2021/06/22 09:10:48;;;;;;;7.50;3.42;;;;;;;25.43;47.70;100673.09;5032655;28;20041;-70
2021/06/22 09:13:22;;;;;;;8.65;3.10;;;;;;;26.09;46.87;100676.78;5030910;28;20177;-70
2021/06/22 09:15:51;;;;;;;7.00;3.22;;;;;;;26.61;46.39;100686.63;5025846;28;20081;-69
2021/06/22 09:18:40;;;;;;;7.18;4.07;;;;;;;27.00;46.20;100679.78;5024704;28;20077;-72
2021/06/22 09:21:13;;;;;;;5.70;3.13;;;;;;;27.27;45.52;100672.78;5026480;28;20124;-71
2021/06/22 09:23:42;;;;;;;8.00;3.10;;;;;;;27.52;44.89;100667.34;5022852;28;20057;-65
2021/06/22 09:26:10;;;;;;;6.28;2.45;;;;;;;27.99;44.56;100668.63;5019352;28;20037;-72
2021/06/22 09:28:37;;;;;;;10.82;2.92;;;;;;;28.54;43.85;100680.13;5022004;28;20541;-69
2021/06/22 09:31:05;;;;;;;9.05;3.10;;;;;;;28.79;42.70;100688.09;5028256;28;20065;-68
2021/06/22 09:33:37;;;;;;;6.70;2.90;;;;;;;28.51;43.07;100694.47;5017930;28;20046;-68
2021/06/22 09:36:08;;;;;;;6.85;3.03;;;;;;;28.11;42.79;100682.69;5025563;28;20762;-69
2021/06/22 09:38:40;;;;;;;6.30;3.22;;;;;;;27.81;43.07;100684.88;5023278;28;20073;-69
2021/06/22 09:41:23;;;;;;;6.63;2.45;;;;;;;27.62;43.61;100686.72;5028840;28;20103;-69
2021/06/22 09:43:59;;;;;;;3.53;2.28;;;;;;;27.68;43.54;100684.28;5032196;28;20051;-71
2021/06/22 09:46:31;;;;;;;6.70;2.72;;;;;;;28.05;43.17;100694.91;5036701;28;20049;-70
2021/06/22 09:49:00;;;;;;;5.90;2.88;;;;;;;28.54;42.41;100691.63;5028612;28;20063;-70
2021/06/22 09:51:34;;;;;;;9.00;3.05;;;;;;;28.89;41.43;100692.25;5023342;28;20531;-71
2021/06/22 09:54:19;;;;;;;4.03;2.13;;;;;;;28.88;41.28;100690.59;5026505;28;20045;-68
2021/06/22 09:56:56;;;;;;;5.97;2.77;;;;;;;28.78;41.72;100693.00;5021630;28;20422;-69
2021/06/22 09:59:24;;;;;;;6.07;2.75;;;;;;;28.74;40.83;100688.47;5020328;28;20477;-68
2021/06/22 10:02:09;;;;;;;8.55;2.78;;;;;;;28.97;41.21;100693.94;5026331;28;20119;-68
2021/06/22 10:04:40;;;;;;;3.75;2.33;;;;;;;29.27;40.51;100690.81;5027426;28;20120;-68
2021/06/22 10:07:12;;;;;;;4.60;2.60;;;;;;;29.52;40.41;100688.81;5027955;28;20134;-69
2021/06/22 10:09:39;;;;;;;6.53;2.97;;;;;;;29.61;39.73;100687.66;5019392;28;20466;-68
2021/06/22 10:12:16;;;;;;;6.88;2.50;;;;;;;29.80;39.68;100672.88;5022272;28;20460;-69
2021/06/22 10:14:51;;;;;;;2.75;2.10;;;;;;;30.14;38.69;100692.63;5020311;28;20137;-68
2021/06/22 10:17:21;;;;;;;4.00;2.22;;;;;;;30.21;37.82;100684.03;5030945;28;20057;-69
2021/06/22 10:19:54;;;;;;;5.60;2.20;;;;;;;30.19;38.02;100687.34;5026115;28;20073;-69
2021/06/22 10:22:24;;;;;;;4.30;2.08;;;;;;;30.35;38.12;100692.66;5029992;28;20049;-68
2021/06/22 10:24:56;;;;;;;3.22;1.88;;;;;;;30.64;37.72;100692.63;5025824;28;20164;-68
2021/06/22 10:27:24;;;;;;;4.07;1.95;;;;;;;30.75;36.77;100676.13;5017298;28;20074;-69
2021/06/22 10:29:55;;;;;;;3.37;1.70;;;;;;;30.95;37.09;100678.56;5021709;28;20361;-68
2021/06/22 10:32:25;;;;;;;3.42;1.60;;;;;;;31.12;36.47;100686.34;5024585;28;20133;-68
2021/06/22 10:34:59;;;;;;;3.15;2.40;;;;;;;31.21;37.19;100680.91;5027834;28;20052;-69
2021/06/22 10:37:34;;;;;;;5.20;1.90;;;;;;;31.41;36.26;100683.31;5028151;28;20544;-68
2021/06/22 10:40:04;;;;;;;4.53;2.20;;;;;;;31.48;35.59;100681.22;5020542;28;20052;-68
2021/06/22 10:42:48;;;;;;;5.82;2.22;;;;;;;31.29;35.78;100633.50;5026136;28;20050;-69
2021/06/22 10:45:19;;;;;;;4.63;1.58;;;;;;;31.69;35.05;100682.31;5031815;28;20049;-69
2021/06/22 10:47:54;;;;;;;6.32;2.58;;;;;;;31.82;34.96;100687.19;5023799;28;20084;-68
2021/06/22 10:50:23;;;;;;;6.47;2.08;;;;;;;31.93;34.92;100694.97;5018609;28;20077;-68
2021/06/22 10:53:01;;;;;;;6.28;2.22;;;;;;;31.81;35.42;100673.19;5032718;28;20041;-68
2021/06/22 10:55:28;;;;;;;4.63;1.65;;;;;;;31.98;34.53;100700.31;5021047;28;20485;-68
2021/06/22 10:58:05;;;;;;;3.80;1.65;;;;;;;31.69;34.91;100680.25;5023812;28;20124;-69
2021/06/22 11:00:40;;;;;;;4.75;1.83;;;;;;;31.60;35.62;100694.34;5030177;28;20050;-69
2021/06/22 11:03:18;;;;;;;2.63;1.52;;;;;;;31.71;35.29;100679.84;5025837;28;20069;-69
2021/06/22 11:05:46;;;;;;;4.20;2.17;;;;;;;31.85;34.52;100680.56;5031823;28;20073;-68
2021/06/22 11:08:13;;;;;;;4.47;1.40;;;;;;;32.01;34.82;100690.81;5015544;28;20149;-66
2021/06/22 11:10:47;;;;;;;2.53;1.77;;;;;;;31.95;34.21;100652.06;5015950;28;20537;-67
2021/06/22 11:13:34;;;;;;;2.72;1.40;;;;;;;31.93;34.78;100652.47;5031472;28;20076;-64
2021/06/22 11:16:21;;;;;;;2.70;1.52;;;;;;;31.95;34.11;100660.72;5031681;28;20441;-67
2021/06/22 11:18:57;;;;;;;2.53;1.60;;;;;;;32.22;33.65;100689.81;5028547;28;20059;-66
2021/06/22 11:21:33;;;;;;;4.13;1.77;;;;;;;32.44;33.71;100699.94;5028119;28;20066;-66
2021/06/22 11:24:11;;;;;;;4.05;1.67;;;;;;;32.16;34.11;100689.44;5027689;28;20049;-66
2021/06/22 11:26:41;;;;;;;3.08;1.80;;;;;;;31.94;34.06;100682.19;5033002;28;20046;-68
2021/06/22 11:29:11;;;;;;;2.10;1.23;;;;;;;32.02;33.50;100689.56;5027479;28;20136;-67
2021/06/22 11:31:51;;;;;;;7.68;1.90;;;;;;;31.82;33.54;100687.19;5022038;28;20155;-66